Terminal Aerodrome Forecast
Issued by NWS Shreveport, LA

Home | Current Version | Previous Version | Text Only | Print | Product List | Glossary On
Versions: 1 2 3 4 5 6 7 8 9 10 11 12 13 14 15 16
000
FTUS44 KSHV 180500 RRA
TAFGGG
TAF
KGGG 180541Z 1806/1906 08004KT P6SM VCSH SCT006 OVC025
      TEMPO 1806/1808 BKN006
     FM180800 08004KT P6SM VCSH OVC006
      TEMPO 1808/1812 4SM -RA BR
     FM181200 08004KT 4SM -DZ BR OVC006
     FM181800 08005KT 6SM BR OVC010
     FM190000 07004KT 5SM BR OVC008=

USA.gov is the U.S. government's official web portal to all federal, state and local government web resources and services.